createdAt,value
2022-12-06T00:14:51.268Z,7.10
2022-12-06T00:17:43.237Z,7.10
2022-12-06T00:20:30.922Z,7.10
2022-12-06T00:23:30.253Z,7.10
2022-12-06T00:26:19.113Z,7.10
2022-12-06T00:29:07.858Z,7.00
2022-12-06T00:31:55.076Z,7.00
2022-12-06T00:34:42.531Z,7.00
2022-12-06T00:40:32.979Z,7.00
2022-12-06T00:43:20.146Z,7.00
2022-12-06T00:46:09.153Z,6.90
2022-12-06T00:48:57.796Z,6.90
2022-12-06T00:51:45.499Z,6.90
2022-12-06T00:54:32.950Z,6.90
2022-12-06T00:57:20.623Z,6.80
2022-12-06T01:00:08.615Z,6.90
2022-12-06T01:05:55.521Z,6.90
2022-12-06T01:08:43.376Z,6.90
2022-12-06T01:14:29.829Z,6.90
2022-12-06T01:17:16.935Z,7.00
2022-12-06T01:20:07.858Z,6.90
2022-12-06T01:23:27.684Z,6.90
2022-12-06T01:26:17.313Z,6.80
2022-12-06T01:29:05.243Z,6.80
2022-12-06T01:31:52.342Z,6.90
2022-12-06T01:34:39.709Z,6.70
2022-12-06T01:40:26.027Z,6.70
2022-12-06T01:43:39.866Z,6.70
2022-12-06T01:46:49.184Z,6.80
2022-12-06T01:49:36.657Z,7.00
2022-12-06T01:52:26.059Z,7.00
2022-12-06T01:55:13.445Z,6.90
2022-12-06T01:58:09.758Z,6.90
2022-12-06T02:00:57.396Z,6.90
2022-12-06T02:03:45.370Z,6.90
2022-12-06T02:06:33.140Z,6.80
2022-12-06T02:09:21.147Z,6.90
2022-12-06T02:12:13.253Z,6.80
2022-12-06T02:15:00.876Z,6.80
2022-12-06T02:17:50.626Z,6.80
2022-12-06T03:07:47.767Z,6.70
2022-12-06T03:10:40.967Z,6.70
2022-12-06T03:13:37.799Z,6.80
2022-12-06T03:16:34.909Z,6.70
2022-12-06T03:19:24.654Z,6.60
2022-12-06T03:22:22.324Z,6.80
2022-12-06T03:25:10.795Z,6.70
2022-12-06T03:28:01.202Z,6.80
2022-12-06T03:30:53.882Z,6.90
2022-12-06T03:33:52.514Z,6.80
2022-12-06T03:36:47.660Z,6.60
2022-12-06T03:40:12.437Z,6.60
2022-12-06T03:43:00.384Z,6.60
2022-12-06T03:46:11.320Z,6.50
2022-12-06T03:49:06.029Z,6.50
2022-12-06T03:51:55.207Z,6.50
2022-12-06T03:54:43.806Z,6.50
2022-12-06T03:57:33.945Z,6.50
2022-12-06T04:00:24.354Z,6.50
2022-12-06T04:03:13.817Z,6.50
2022-12-06T04:06:07.313Z,6.50
2022-12-06T04:12:40.708Z,6.60
2022-12-06T04:15:32.042Z,6.40
2022-12-06T04:18:19.318Z,6.50
2022-12-06T04:21:26.265Z,6.50
2022-12-06T04:24:14.176Z,6.50
2022-12-06T04:27:24.907Z,6.40
2022-12-06T04:30:32.394Z,6.30
2022-12-06T04:33:39.418Z,6.60
2022-12-06T04:36:47.231Z,6.60
2022-12-06T04:39:38.461Z,6.50
2022-12-06T04:42:48.908Z,6.50
2022-12-06T04:45:39.027Z,6.40
2022-12-06T04:48:26.529Z,6.50
2022-12-06T04:51:14.656Z,6.50
2022-12-06T04:54:14.415Z,6.60
2022-12-06T04:57:11.183Z,6.50
2022-12-06T04:59:59.269Z,6.40
2022-12-06T05:02:47.129Z,6.40
2022-12-06T05:05:34.609Z,6.30
2022-12-06T05:08:22.606Z,6.40
2022-12-06T05:11:10.042Z,6.40
2022-12-06T05:13:57.514Z,6.30
2022-12-06T05:16:44.768Z,6.40
2022-12-06T05:19:32.270Z,6.50
2022-12-06T05:22:19.967Z,6.40
2022-12-06T05:25:07.766Z,6.40
2022-12-06T05:27:55.192Z,6.30
2022-12-06T05:30:42.543Z,6.30
2022-12-06T05:33:30.281Z,6.30
2022-12-06T05:36:23.264Z,6.30
2022-12-06T05:39:10.674Z,6.30
2022-12-06T05:42:01.619Z,6.20
2022-12-06T05:44:49.535Z,6.20
2022-12-06T05:47:36.790Z,6.10
2022-12-06T05:50:26.478Z,6.30
2022-12-06T05:53:17.179Z,6.10
2022-12-06T05:56:06.238Z,6.10
2022-12-06T05:58:53.801Z,6.10
2022-12-06T06:01:41.566Z,6.10
2022-12-06T06:04:32.957Z,6.00
2022-12-06T06:07:20.518Z,6.00
2022-12-06T06:10:08.362Z,5.80
2022-12-06T06:12:55.668Z,5.90
2022-12-06T06:15:43.192Z,5.90
2022-12-06T06:18:30.890Z,5.80
2022-12-06T06:21:18.461Z,5.90
2022-12-06T06:24:06.222Z,5.90
2022-12-06T06:27:03.787Z,5.90
2022-12-06T06:29:51.211Z,5.90
2022-12-06T06:32:39.077Z,5.80
2022-12-06T06:35:35.129Z,5.90
2022-12-06T06:38:23.128Z,5.80
2022-12-06T06:41:54.335Z,5.80
2022-12-06T06:45:29.774Z,5.80
2022-12-06T06:48:41.816Z,5.70
2022-12-06T06:51:40.818Z,5.70
2022-12-06T06:55:01.702Z,5.60
2022-12-06T06:58:09.210Z,5.70
2022-12-06T07:01:32.349Z,5.60
2022-12-06T07:04:26.992Z,5.50
2022-12-06T07:11:12.046Z,5.40
2022-12-06T07:13:59.512Z,5.70
2022-12-06T07:16:47.386Z,5.60
2022-12-06T07:19:35.096Z,5.50
2022-12-06T07:22:22.570Z,5.50
2022-12-06T07:25:09.642Z,5.50
2022-12-06T07:27:57.387Z,5.50
2022-12-06T07:30:44.439Z,5.50
2022-12-06T07:33:32.043Z,5.50
2022-12-06T07:36:19.595Z,5.50
2022-12-06T07:39:11.517Z,5.40
2022-12-06T07:48:07.687Z,5.40
2022-12-06T07:51:03.189Z,5.40
2022-12-06T07:53:50.717Z,5.40
2022-12-06T07:56:38.739Z,5.40
2022-12-06T07:59:26.127Z,5.50
2022-12-06T08:28:22.685Z,5.80
2022-12-06T08:31:11.284Z,5.80
2022-12-06T08:34:43.467Z,5.80
2022-12-06T08:46:36.682Z,6.00
2022-12-06T09:19:52.015Z,6.40
2022-12-06T09:22:45.905Z,6.40
2022-12-06T09:26:18.837Z,6.60
2022-12-06T09:29:07.005Z,6.70
2022-12-06T10:02:38.805Z,7.10
2022-12-06T10:09:13.319Z,7.50
2022-12-06T10:12:09.096Z,7.60
2022-12-06T10:15:05.924Z,7.60
2022-12-06T10:17:56.640Z,7.80
2022-12-06T10:20:50.270Z,7.70
2022-12-06T10:30:02.622Z,7.70
2022-12-06T10:33:09.390Z,7.90
2022-12-06T10:36:00.400Z,7.80
2022-12-06T10:38:59.688Z,8.00
2022-12-06T10:41:54.752Z,7.60
2022-12-06T10:45:28.540Z,10.10
2022-12-06T10:48:36.711Z,15.30
2022-12-06T10:51:30.403Z,17.30
2022-12-06T10:54:22.191Z,17.90
2022-12-06T10:57:18.441Z,18.60
2022-12-06T11:00:13.403Z,16.50
2022-12-06T11:03:23.084Z,11.50
2022-12-06T11:12:20.445Z,15.70
2022-12-06T11:15:21.225Z,15.20
2022-12-06T11:48:39.968Z,8.70
2022-12-06T11:54:49.981Z,8.60
2022-12-06T11:58:06.759Z,8.80
2022-12-06T12:07:17.450Z,9.00
2022-12-06T12:10:22.537Z,8.80
2022-12-06T12:13:29.216Z,9.20
2022-12-06T12:16:40.367Z,9.00
2022-12-06T12:19:28.891Z,11.10
2022-12-06T12:22:22.704Z,10.60
2022-12-06T12:25:22.901Z,11.10
2022-12-06T12:28:25.477Z,9.60
2022-12-06T12:34:19.124Z,9.00
2022-12-06T12:37:20.120Z,8.90
2022-12-06T12:58:16.124Z,8.40
2022-12-06T13:19:16.192Z,8.20
2022-12-06T13:22:04.869Z,8.30
2022-12-06T13:24:58.834Z,8.10
2022-12-06T13:27:48.644Z,8.20
2022-12-06T13:30:36.921Z,8.10
2022-12-06T13:33:25.947Z,7.90
2022-12-06T13:36:14.043Z,8.10
2022-12-06T13:39:19.695Z,8.00
2022-12-06T13:42:24.075Z,7.90
2022-12-06T13:45:32.114Z,7.90
2022-12-06T13:48:25.892Z,7.90
2022-12-06T13:54:19.702Z,8.10
2022-12-06T13:57:21.041Z,7.90
2022-12-06T14:03:17.614Z,8.10
2022-12-06T14:06:14.821Z,8.10
2022-12-06T14:09:04.817Z,7.90
2022-12-06T14:11:53.235Z,8.00
2022-12-06T14:14:40.770Z,7.80
2022-12-06T14:20:31.827Z,7.80
2022-12-06T14:23:23.020Z,7.90
2022-12-06T14:26:15.382Z,7.80
2022-12-06T14:29:34.847Z,7.90
2022-12-06T14:36:01.302Z,8.00
2022-12-06T14:38:54.070Z,7.90
2022-12-06T15:21:19.906Z,7.80
2022-12-06T15:30:09.593Z,7.80
2022-12-06T16:00:16.685Z,7.70
2022-12-06T16:15:51.402Z,7.70
2022-12-06T16:18:38.989Z,7.70
2022-12-06T16:21:26.875Z,7.70
2022-12-06T16:30:30.480Z,7.60
2022-12-06T16:33:19.163Z,7.60
2022-12-06T16:36:12.259Z,7.60
2022-12-06T16:39:02.194Z,7.60
2022-12-06T16:41:50.023Z,7.60
2022-12-06T16:44:50.882Z,7.50
2022-12-06T16:47:38.876Z,7.40
2022-12-06T16:53:29.419Z,7.40
2022-12-06T16:59:20.193Z,7.40
2022-12-06T17:02:37.770Z,7.40
2022-12-06T17:05:25.977Z,7.40
2022-12-06T17:08:18.842Z,7.40
2022-12-06T17:11:33.089Z,7.40
2022-12-06T17:14:22.360Z,7.50
2022-12-06T17:17:16.603Z,7.50
2022-12-06T17:20:04.518Z,7.50
2022-12-06T17:22:52.061Z,7.50
2022-12-06T17:25:39.460Z,7.50
2022-12-06T17:34:42.313Z,7.40
2022-12-06T17:37:30.551Z,7.40
2022-12-06T17:40:17.924Z,7.50
2022-12-06T17:43:06.400Z,7.40
2022-12-06T18:01:08.700Z,7.40
2022-12-06T18:03:58.035Z,7.10
2022-12-06T18:06:46.061Z,7.30
2022-12-06T18:09:33.953Z,7.20
2022-12-06T18:12:21.552Z,7.20
2022-12-06T18:15:29.239Z,7.00
2022-12-06T18:18:16.617Z,7.10
2022-12-06T18:21:07.654Z,7.10
2022-12-06T18:24:20.215Z,7.10
2022-12-06T18:27:03.538Z,7.10
2022-12-06T18:35:53.616Z,7.10
2022-12-06T18:38:42.787Z,7.20
2022-12-06T18:41:30.723Z,7.20
2022-12-06T18:44:17.813Z,7.20
2022-12-06T18:47:05.494Z,7.40
2022-12-06T18:49:52.519Z,7.20
2022-12-06T18:52:39.953Z,7.30
2022-12-06T18:55:27.619Z,7.40
2022-12-06T18:58:15.044Z,7.30
2022-12-06T19:01:16.555Z,7.30
2022-12-06T19:04:05.135Z,7.30
2022-12-06T19:06:52.918Z,7.30
2022-12-06T19:09:40.284Z,7.20
2022-12-06T19:12:28.093Z,7.20
2022-12-06T19:15:15.579Z,7.30
2022-12-06T19:18:03.536Z,7.30
2022-12-06T19:21:16.351Z,7.20
2022-12-06T19:24:04.285Z,7.20
2022-12-06T19:26:52.647Z,7.10
2022-12-06T19:29:40.428Z,7.20
2022-12-06T19:32:28.190Z,7.20
2022-12-06T19:35:15.816Z,7.20
2022-12-06T19:38:03.274Z,7.10
2022-12-06T19:40:50.748Z,7.20
2022-12-06T19:43:56.670Z,7.10
2022-12-06T19:46:45.660Z,7.00
2022-12-06T19:49:33.342Z,7.10
2022-12-06T19:52:20.376Z,7.10
2022-12-06T19:55:08.335Z,6.90
2022-12-06T19:57:55.375Z,6.90
2022-12-06T20:00:43.586Z,6.90
2022-12-06T20:06:20.480Z,7.00
2022-12-06T20:15:14.385Z,7.10
2022-12-06T20:18:01.485Z,7.10
2022-12-06T20:20:48.676Z,7.00
2022-12-06T20:23:36.202Z,7.10
2022-12-06T20:29:27.135Z,7.10
2022-12-06T20:32:34.870Z,7.00
2022-12-06T20:38:39.472Z,7.20
2022-12-06T20:41:29.908Z,7.20
2022-12-06T20:44:17.441Z,7.20
2022-12-06T21:08:32.281Z,6.90
2022-12-06T21:11:23.032Z,6.90
2022-12-06T21:14:14.460Z,7.00
2022-12-06T21:17:01.952Z,6.90
2022-12-06T21:19:49.593Z,6.90
2022-12-06T21:22:37.259Z,6.90
2022-12-06T21:25:24.860Z,6.90
2022-12-06T21:41:10.923Z,6.80
2022-12-06T21:43:59.211Z,6.80
2022-12-06T21:46:50.149Z,6.80
2022-12-06T21:49:37.712Z,6.70
2022-12-06T21:52:26.256Z,6.70
2022-12-06T21:55:13.333Z,6.70
2022-12-06T21:58:00.778Z,6.70
2022-12-06T22:00:48.687Z,6.60
2022-12-06T22:03:36.202Z,6.70
2022-12-06T22:15:32.784Z,6.80
2022-12-06T22:21:32.030Z,6.80
2022-12-06T22:24:19.969Z,6.70
2022-12-06T22:27:07.764Z,6.70
2022-12-06T22:29:54.984Z,6.90
2022-12-06T22:32:42.517Z,6.80
2022-12-06T22:35:29.924Z,6.70
2022-12-06T22:38:17.414Z,6.70
2022-12-06T22:41:05.441Z,6.60
2022-12-06T22:43:57.087Z,6.60
2022-12-06T22:46:44.813Z,6.50
2022-12-06T22:49:32.235Z,6.40
2022-12-06T22:52:19.781Z,6.40
2022-12-06T22:55:07.292Z,6.40
2022-12-06T22:57:54.717Z,6.40
2022-12-06T23:06:47.862Z,6.50
2022-12-06T23:15:41.373Z,6.50
2022-12-06T23:18:29.218Z,6.40
2022-12-06T23:21:18.397Z,6.50
2022-12-06T23:24:07.018Z,6.40
2022-12-06T23:26:58.126Z,6.40
2022-12-06T23:29:45.574Z,6.40
2022-12-06T23:32:41.333Z,6.40
2022-12-06T23:35:28.853Z,6.30
2022-12-06T23:38:16.260Z,6.40
2022-12-06T23:41:23.707Z,6.40
2022-12-06T23:50:17.049Z,6.50
